sensor_id;sensor_type;location;lat;lon;timestamp;P1;durP1;ratioP1;P2;durP2;ratioP2
72109;SDS011;59983;52.010;5.420;2023-07-28T00:00:27;10.60;;;8.55;;
72109;SDS011;59983;52.010;5.420;2023-07-28T00:02:53;11.93;;;8.70;;
72109;SDS011;59983;52.010;5.420;2023-07-28T00:05:20;11.77;;;9.55;;
72109;SDS011;59983;52.010;5.420;2023-07-28T00:07:46;11.32;;;8.38;;
72109;SDS011;59983;52.010;5.420;2023-07-28T00:10:13;11.18;;;8.68;;
72109;SDS011;59983;52.010;5.420;2023-07-28T00:12:39;10.68;;;8.77;;
72109;SDS011;59983;52.010;5.420;2023-07-28T00:15:06;11.47;;;8.80;;
72109;SDS011;59983;52.010;5.420;2023-07-28T00:17:33;10.20;;;8.18;;
72109;SDS011;59983;52.010;5.420;2023-07-28T00:19:59;12.73;;;8.82;;
72109;SDS011;59983;52.010;5.420;2023-07-28T00:22:26;9.90;;;8.95;;
72109;SDS011;59983;52.010;5.420;2023-07-28T00:24:52;13.05;;;9.00;;
72109;SDS011;59983;52.010;5.420;2023-07-28T00:27:19;11.17;;;8.50;;
72109;SDS011;59983;52.010;5.420;2023-07-28T00:29:45;8.98;;;8.07;;
72109;SDS011;59983;52.010;5.420;2023-07-28T00:32:12;13.30;;;8.68;;
72109;SDS011;59983;52.010;5.420;2023-07-28T00:34:38;9.55;;;8.02;;
72109;SDS011;59983;52.010;5.420;2023-07-28T00:37:05;12.90;;;8.80;;
72109;SDS011;59983;52.010;5.420;2023-07-28T00:39:31;12.07;;;8.33;;
72109;SDS011;59983;52.010;5.420;2023-07-28T00:41:58;9.65;;;8.48;;
72109;SDS011;59983;52.010;5.420;2023-07-28T00:44:25;10.40;;;8.02;;
72109;SDS011;59983;52.010;5.420;2023-07-28T00:46:51;10.95;;;8.30;;
72109;SDS011;59983;52.010;5.420;2023-07-28T00:49:19;8.63;;;7.80;;
72109;SDS011;59983;52.010;5.420;2023-07-28T00:51:46;9.80;;;7.67;;
72109;SDS011;59983;52.010;5.420;2023-07-28T00:54:12;16.00;;;9.00;;
72109;SDS011;59983;52.010;5.420;2023-07-28T00:56:39;8.95;;;7.55;;
72109;SDS011;59983;52.010;5.420;2023-07-28T00:59:06;10.65;;;7.88;;
72109;SDS011;59983;52.010;5.420;2023-07-28T01:01:33;8.98;;;7.65;;
72109;SDS011;59983;52.010;5.420;2023-07-28T01:03:59;8.40;;;7.60;;
72109;SDS011;59983;52.010;5.420;2023-07-28T01:06:30;16.05;;;8.15;;
72109;SDS011;59983;52.010;5.420;2023-07-28T01:09:06;9.30;;;7.30;;
72109;SDS011;59983;52.010;5.420;2023-07-28T01:11:38;13.80;;;8.85;;
72109;SDS011;59983;52.010;5.420;2023-07-28T01:14:04;15.38;;;8.70;;
72109;SDS011;59983;52.010;5.420;2023-07-28T01:16:31;13.43;;;7.87;;
72109;SDS011;59983;52.010;5.420;2023-07-28T01:18:58;12.85;;;8.30;;
72109;SDS011;59983;52.010;5.420;2023-07-28T01:21:25;11.77;;;9.05;;
72109;SDS011;59983;52.010;5.420;2023-07-28T01:24:12;11.13;;;7.85;;
72109;SDS011;59983;52.010;5.420;2023-07-28T01:26:46;13.32;;;8.50;;
72109;SDS011;59983;52.010;5.420;2023-07-28T01:29:15;11.67;;;8.57;;
72109;SDS011;59983;52.010;5.420;2023-07-28T01:31:42;11.50;;;8.43;;
72109;SDS011;59983;52.010;5.420;2023-07-28T01:34:09;11.63;;;8.93;;
72109;SDS011;59983;52.010;5.420;2023-07-28T01:36:35;18.63;;;10.55;;
72109;SDS011;59983;52.010;5.420;2023-07-28T01:39:02;9.52;;;8.52;;
72109;SDS011;59983;52.010;5.420;2023-07-28T01:41:29;13.17;;;9.30;;
72109;SDS011;59983;52.010;5.420;2023-07-28T01:43:55;17.23;;;9.05;;
72109;SDS011;59983;52.010;5.420;2023-07-28T01:46:22;13.10;;;9.35;;
72109;SDS011;59983;52.010;5.420;2023-07-28T01:48:49;14.63;;;8.80;;
72109;SDS011;59983;52.010;5.420;2023-07-28T01:51:15;14.68;;;9.10;;
72109;SDS011;59983;52.010;5.420;2023-07-28T01:53:42;14.03;;;9.77;;
72109;SDS011;59983;52.010;5.420;2023-07-28T01:56:08;13.27;;;8.55;;
72109;SDS011;59983;52.010;5.420;2023-07-28T01:58:35;14.75;;;9.13;;
72109;SDS011;59983;52.010;5.420;2023-07-28T02:01:01;17.90;;;9.18;;
72109;SDS011;59983;52.010;5.420;2023-07-28T02:03:28;13.50;;;8.40;;
72109;SDS011;59983;52.010;5.420;2023-07-28T02:05:54;12.63;;;9.97;;
72109;SDS011;59983;52.010;5.420;2023-07-28T02:08:21;15.38;;;9.48;;
72109;SDS011;59983;52.010;5.420;2023-07-28T02:10:47;16.70;;;9.70;;
72109;SDS011;59983;52.010;5.420;2023-07-28T02:13:14;19.63;;;9.52;;
72109;SDS011;59983;52.010;5.420;2023-07-28T02:15:40;15.00;;;9.40;;
72109;SDS011;59983;52.010;5.420;2023-07-28T02:18:07;16.57;;;10.27;;
72109;SDS011;59983;52.010;5.420;2023-07-28T02:20:34;16.63;;;10.75;;
72109;SDS011;59983;52.010;5.420;2023-07-28T02:23:02;20.10;;;9.90;;
72109;SDS011;59983;52.010;5.420;2023-07-28T02:25:29;23.38;;;11.10;;
72109;SDS011;59983;52.010;5.420;2023-07-28T02:27:55;16.10;;;10.13;;
72109;SDS011;59983;52.010;5.420;2023-07-28T02:30:22;21.67;;;11.50;;
72109;SDS011;59983;52.010;5.420;2023-07-28T02:32:48;21.70;;;11.50;;
72109;SDS011;59983;52.010;5.420;2023-07-28T02:35:15;21.00;;;11.50;;
72109;SDS011;59983;52.010;5.420;2023-07-28T02:37:45;23.15;;;11.93;;
72109;SDS011;59983;52.010;5.420;2023-07-28T02:40:11;32.33;;;10.65;;
72109;SDS011;59983;52.010;5.420;2023-07-28T02:42:39;22.10;;;12.13;;
72109;SDS011;59983;52.010;5.420;2023-07-28T02:45:05;23.42;;;12.07;;
72109;SDS011;59983;52.010;5.420;2023-07-28T02:47:32;20.23;;;10.98;;
72109;SDS011;59983;52.010;5.420;2023-07-28T02:49:59;21.80;;;12.65;;
72109;SDS011;59983;52.010;5.420;2023-07-28T02:52:25;23.70;;;11.80;;
72109;SDS011;59983;52.010;5.420;2023-07-28T02:54:52;25.57;;;12.07;;
72109;SDS011;59983;52.010;5.420;2023-07-28T02:57:18;25.00;;;12.65;;
72109;SDS011;59983;52.010;5.420;2023-07-28T02:59:45;22.55;;;12.70;;
72109;SDS011;59983;52.010;5.420;2023-07-28T03:02:12;26.33;;;12.25;;
72109;SDS011;59983;52.010;5.420;2023-07-28T03:04:38;33.53;;;13.60;;
72109;SDS011;59983;52.010;5.420;2023-07-28T03:07:05;24.93;;;13.70;;
72109;SDS011;59983;52.010;5.420;2023-07-28T03:09:31;26.48;;;13.07;;
72109;SDS011;59983;52.010;5.420;2023-07-28T03:11:58;26.90;;;13.00;;
72109;SDS011;59983;52.010;5.420;2023-07-28T03:14:24;29.98;;;13.88;;
72109;SDS011;59983;52.010;5.420;2023-07-28T03:16:51;19.20;;;13.05;;
72109;SDS011;59983;52.010;5.420;2023-07-28T03:19:18;30.23;;;13.07;;
72109;SDS011;59983;52.010;5.420;2023-07-28T03:21:44;30.75;;;14.98;;
72109;SDS011;59983;52.010;5.420;2023-07-28T03:24:11;35.10;;;13.60;;
72109;SDS011;59983;52.010;5.420;2023-07-28T03:26:37;28.98;;;13.52;;
72109;SDS011;59983;52.010;5.420;2023-07-28T03:29:04;34.00;;;14.77;;
72109;SDS011;59983;52.010;5.420;2023-07-28T03:31:30;33.67;;;14.40;;
72109;SDS011;59983;52.010;5.420;2023-07-28T03:33:57;33.38;;;13.38;;
72109;SDS011;59983;52.010;5.420;2023-07-28T03:36:24;30.88;;;13.23;;
72109;SDS011;59983;52.010;5.420;2023-07-28T03:38:50;40.53;;;14.43;;
72109;SDS011;59983;52.010;5.420;2023-07-28T03:41:17;31.73;;;14.52;;
72109;SDS011;59983;52.010;5.420;2023-07-28T03:43:43;28.73;;;14.17;;
72109;SDS011;59983;52.010;5.420;2023-07-28T03:46:10;31.50;;;13.38;;
72109;SDS011;59983;52.010;5.420;2023-07-28T03:48:36;27.83;;;14.05;;
72109;SDS011;59983;52.010;5.420;2023-07-28T03:51:03;35.88;;;13.68;;
72109;SDS011;59983;52.010;5.420;2023-07-28T03:53:30;37.00;;;14.32;;
72109;SDS011;59983;52.010;5.420;2023-07-28T03:55:57;31.73;;;14.90;;
72109;SDS011;59983;52.010;5.420;2023-07-28T03:58:24;32.10;;;12.60;;
72109;SDS011;59983;52.010;5.420;2023-07-28T04:00:52;23.48;;;12.65;;
72109;SDS011;59983;52.010;5.420;2023-07-28T04:03:19;35.15;;;14.43;;
72109;SDS011;59983;52.010;5.420;2023-07-28T04:05:46;28.38;;;13.65;;
72109;SDS011;59983;52.010;5.420;2023-07-28T04:08:13;25.93;;;11.00;;
72109;SDS011;59983;52.010;5.420;2023-07-28T04:10:39;34.83;;;14.02;;
72109;SDS011;59983;52.010;5.420;2023-07-28T04:13:06;20.88;;;11.98;;
72109;SDS011;59983;52.010;5.420;2023-07-28T04:15:32;25.40;;;13.35;;
72109;SDS011;59983;52.010;5.420;2023-07-28T04:17:59;30.88;;;14.02;;
72109;SDS011;59983;52.010;5.420;2023-07-28T04:20:25;32.20;;;14.80;;
72109;SDS011;59983;52.010;5.420;2023-07-28T04:22:52;23.25;;;13.05;;
72109;SDS011;59983;52.010;5.420;2023-07-28T04:25:18;34.30;;;14.07;;
72109;SDS011;59983;52.010;5.420;2023-07-28T04:27:45;26.23;;;12.98;;
72109;SDS011;59983;52.010;5.420;2023-07-28T04:30:11;38.67;;;15.50;;
72109;SDS011;59983;52.010;5.420;2023-07-28T04:32:38;32.57;;;13.83;;
72109;SDS011;59983;52.010;5.420;2023-07-28T04:35:05;33.03;;;14.60;;
72109;SDS011;59983;52.010;5.420;2023-07-28T04:37:32;32.42;;;15.73;;
72109;SDS011;59983;52.010;5.420;2023-07-28T04:39:58;30.10;;;14.18;;
72109;SDS011;59983;52.010;5.420;2023-07-28T04:42:25;40.05;;;15.68;;
72109;SDS011;59983;52.010;5.420;2023-07-28T04:44:51;30.63;;;14.20;;
72109;SDS011;59983;52.010;5.420;2023-07-28T04:47:18;29.20;;;14.10;;
72109;SDS011;59983;52.010;5.420;2023-07-28T04:49:45;33.55;;;15.30;;
72109;SDS011;59983;52.010;5.420;2023-07-28T04:52:11;30.88;;;14.15;;
72109;SDS011;59983;52.010;5.420;2023-07-28T04:54:38;26.40;;;14.60;;
72109;SDS011;59983;52.010;5.420;2023-07-28T04:57:04;30.10;;;15.23;;
72109;SDS011;59983;52.010;5.420;2023-07-28T04:59:31;34.63;;;15.93;;
72109;SDS011;59983;52.010;5.420;2023-07-28T05:01:58;28.52;;;13.90;;
72109;SDS011;59983;52.010;5.420;2023-07-28T05:04:25;24.65;;;15.05;;
72109;SDS011;59983;52.010;5.420;2023-07-28T05:06:51;28.48;;;15.55;;
72109;SDS011;59983;52.010;5.420;2023-07-28T05:09:18;28.03;;;14.73;;
72109;SDS011;59983;52.010;5.420;2023-07-28T05:11:45;28.27;;;15.13;;
72109;SDS011;59983;52.010;5.420;2023-07-28T05:14:14;34.80;;;15.80;;
72109;SDS011;59983;52.010;5.420;2023-07-28T05:16:40;33.65;;;13.65;;
72109;SDS011;59983;52.010;5.420;2023-07-28T05:19:07;26.58;;;14.75;;
72109;SDS011;59983;52.010;5.420;2023-07-28T05:21:34;26.73;;;14.83;;
72109;SDS011;59983;52.010;5.420;2023-07-28T05:24:01;29.90;;;15.77;;
72109;SDS011;59983;52.010;5.420;2023-07-28T05:26:27;31.10;;;15.52;;
72109;SDS011;59983;52.010;5.420;2023-07-28T05:28:54;31.67;;;16.13;;
72109;SDS011;59983;52.010;5.420;2023-07-28T05:31:20;35.35;;;14.63;;
72109;SDS011;59983;52.010;5.420;2023-07-28T05:33:47;30.17;;;13.77;;
72109;SDS011;59983;52.010;5.420;2023-07-28T05:36:13;30.67;;;14.90;;
72109;SDS011;59983;52.010;5.420;2023-07-28T05:38:40;31.95;;;15.35;;
72109;SDS011;59983;52.010;5.420;2023-07-28T05:41:07;27.80;;;13.65;;
72109;SDS011;59983;52.010;5.420;2023-07-28T05:43:33;34.15;;;15.13;;
72109;SDS011;59983;52.010;5.420;2023-07-28T05:46:00;24.23;;;14.03;;
72109;SDS011;59983;52.010;5.420;2023-07-28T05:48:28;30.90;;;13.48;;
72109;SDS011;59983;52.010;5.420;2023-07-28T05:50:54;25.50;;;12.60;;
72109;SDS011;59983;52.010;5.420;2023-07-28T05:53:21;23.13;;;12.55;;
72109;SDS011;59983;52.010;5.420;2023-07-28T05:55:47;25.25;;;13.43;;
72109;SDS011;59983;52.010;5.420;2023-07-28T05:58:14;26.40;;;13.40;;
72109;SDS011;59983;52.010;5.420;2023-07-28T06:00:41;25.35;;;12.93;;
72109;SDS011;59983;52.010;5.420;2023-07-28T06:03:11;23.95;;;13.27;;
72109;SDS011;59983;52.010;5.420;2023-07-28T06:05:39;34.30;;;13.77;;
72109;SDS011;59983;52.010;5.420;2023-07-28T06:08:06;23.88;;;13.45;;
72109;SDS011;59983;52.010;5.420;2023-07-28T06:10:33;28.03;;;13.73;;
72109;SDS011;59983;52.010;5.420;2023-07-28T06:13:00;25.90;;;13.85;;
72109;SDS011;59983;52.010;5.420;2023-07-28T06:15:27;29.05;;;12.88;;
72109;SDS011;59983;52.010;5.420;2023-07-28T06:17:54;27.63;;;13.77;;
72109;SDS011;59983;52.010;5.420;2023-07-28T06:20:20;27.75;;;12.38;;
72109;SDS011;59983;52.010;5.420;2023-07-28T06:22:47;19.60;;;12.80;;
72109;SDS011;59983;52.010;5.420;2023-07-28T06:25:13;21.65;;;12.10;;
72109;SDS011;59983;52.010;5.420;2023-07-28T06:27:40;21.80;;;13.43;;
72109;SDS011;59983;52.010;5.420;2023-07-28T06:30:07;20.40;;;14.40;;
72109;SDS011;59983;52.010;5.420;2023-07-28T06:32:34;19.85;;;11.82;;
72109;SDS011;59983;52.010;5.420;2023-07-28T06:35:00;22.43;;;12.17;;
72109;SDS011;59983;52.010;5.420;2023-07-28T06:37:27;24.13;;;12.55;;
72109;SDS011;59983;52.010;5.420;2023-07-28T06:39:53;25.70;;;12.60;;
72109;SDS011;59983;52.010;5.420;2023-07-28T06:42:22;24.95;;;11.75;;
72109;SDS011;59983;52.010;5.420;2023-07-28T06:44:50;15.10;;;11.23;;
72109;SDS011;59983;52.010;5.420;2023-07-28T06:47:17;23.90;;;11.80;;
72109;SDS011;59983;52.010;5.420;2023-07-28T06:49:44;13.00;;;10.77;;
72109;SDS011;59983;52.010;5.420;2023-07-28T06:52:11;19.40;;;11.18;;
72109;SDS011;59983;52.010;5.420;2023-07-28T06:54:39;23.83;;;12.07;;
72109;SDS011;59983;52.010;5.420;2023-07-28T06:57:05;20.27;;;12.63;;
72109;SDS011;59983;52.010;5.420;2023-07-28T06:59:32;19.83;;;11.63;;
72109;SDS011;59983;52.010;5.420;2023-07-28T07:01:59;18.35;;;11.48;;
72109;SDS011;59983;52.010;5.420;2023-07-28T07:04:26;14.15;;;10.35;;
72109;SDS011;59983;52.010;5.420;2023-07-28T07:06:53;17.27;;;11.27;;
72109;SDS011;59983;52.010;5.420;2023-07-28T07:09:19;20.02;;;11.77;;
72109;SDS011;59983;52.010;5.420;2023-07-28T07:11:46;27.90;;;12.83;;
72109;SDS011;59983;52.010;5.420;2023-07-28T07:14:13;18.42;;;12.45;;
72109;SDS011;59983;52.010;5.420;2023-07-28T07:16:40;17.85;;;12.63;;
72109;SDS011;59983;52.010;5.420;2023-07-28T07:19:07;17.80;;;10.95;;
72109;SDS011;59983;52.010;5.420;2023-07-28T07:21:35;24.83;;;12.18;;
72109;SDS011;59983;52.010;5.420;2023-07-28T07:24:03;19.30;;;13.03;;
72109;SDS011;59983;52.010;5.420;2023-07-28T07:26:30;13.80;;;11.32;;
72109;SDS011;59983;52.010;5.420;2023-07-28T07:28:57;18.55;;;11.55;;
72109;SDS011;59983;52.010;5.420;2023-07-28T07:31:24;24.55;;;12.55;;
72109;SDS011;59983;52.010;5.420;2023-07-28T07:33:51;25.80;;;13.68;;
72109;SDS011;59983;52.010;5.420;2023-07-28T07:36:18;16.90;;;13.27;;
72109;SDS011;59983;52.010;5.420;2023-07-28T07:38:45;18.33;;;12.55;;
72109;SDS011;59983;52.010;5.420;2023-07-28T07:41:13;20.27;;;12.68;;
72109;SDS011;59983;52.010;5.420;2023-07-28T07:43:45;20.98;;;13.20;;
72109;SDS011;59983;52.010;5.420;2023-07-28T07:46:13;27.30;;;14.48;;
72109;SDS011;59983;52.010;5.420;2023-07-28T07:48:40;21.87;;;13.50;;
72109;SDS011;59983;52.010;5.420;2023-07-28T07:51:07;23.38;;;14.15;;
72109;SDS011;59983;52.010;5.420;2023-07-28T07:53:35;20.23;;;13.88;;
72109;SDS011;59983;52.010;5.420;2023-07-28T07:56:04;20.42;;;13.52;;
72109;SDS011;59983;52.010;5.420;2023-07-28T07:58:32;23.05;;;13.88;;
72109;SDS011;59983;52.010;5.420;2023-07-28T08:00:59;27.17;;;13.93;;
72109;SDS011;59983;52.010;5.420;2023-07-28T08:03:26;21.83;;;14.90;;
72109;SDS011;59983;52.010;5.420;2023-07-28T08:05:53;25.48;;;14.48;;
72109;SDS011;59983;52.010;5.420;2023-07-28T08:08:20;15.65;;;13.20;;
72109;SDS011;59983;52.010;5.420;2023-07-28T08:10:47;25.08;;;12.75;;
72109;SDS011;59983;52.010;5.420;2023-07-28T08:13:14;22.20;;;13.47;;
72109;SDS011;59983;52.010;5.420;2023-07-28T08:15:44;27.05;;;15.25;;
72109;SDS011;59983;52.010;5.420;2023-07-28T08:18:12;27.73;;;14.20;;
72109;SDS011;59983;52.010;5.420;2023-07-28T08:20:39;24.70;;;14.98;;
72109;SDS011;59983;52.010;5.420;2023-07-28T08:23:06;19.65;;;12.98;;
72109;SDS011;59983;52.010;5.420;2023-07-28T08:25:34;18.63;;;12.80;;
72109;SDS011;59983;52.010;5.420;2023-07-28T08:28:01;21.10;;;13.27;;
72109;SDS011;59983;52.010;5.420;2023-07-28T08:30:27;19.95;;;12.98;;
72109;SDS011;59983;52.010;5.420;2023-07-28T08:32:54;28.30;;;12.90;;
72109;SDS011;59983;52.010;5.420;2023-07-28T08:35:21;17.02;;;10.70;;
72109;SDS011;59983;52.010;5.420;2023-07-28T08:37:47;19.23;;;11.90;;
72109;SDS011;59983;52.010;5.420;2023-07-28T08:40:14;14.52;;;9.90;;
72109;SDS011;59983;52.010;5.420;2023-07-28T08:42:40;14.90;;;10.63;;
72109;SDS011;59983;52.010;5.420;2023-07-28T08:45:07;16.35;;;10.18;;
72109;SDS011;59983;52.010;5.420;2023-07-28T08:47:35;14.68;;;12.18;;
72109;SDS011;59983;52.010;5.420;2023-07-28T08:50:03;15.50;;;10.40;;
72109;SDS011;59983;52.010;5.420;2023-07-28T08:52:32;19.58;;;10.45;;
72109;SDS011;59983;52.010;5.420;2023-07-28T08:54:59;12.18;;;7.82;;
72109;SDS011;59983;52.010;5.420;2023-07-28T08:57:25;15.00;;;9.75;;
72109;SDS011;59983;52.010;5.420;2023-07-28T08:59:53;14.20;;;9.98;;
72109;SDS011;59983;52.010;5.420;2023-07-28T09:02:20;14.20;;;9.90;;
72109;SDS011;59983;52.010;5.420;2023-07-28T09:04:47;12.60;;;8.57;;
72109;SDS011;59983;52.010;5.420;2023-07-28T09:07:14;14.07;;;9.00;;
72109;SDS011;59983;52.010;5.420;2023-07-28T09:09:41;11.05;;;7.35;;
72109;SDS011;59983;52.010;5.420;2023-07-28T09:12:08;9.98;;;6.80;;
72109;SDS011;59983;52.010;5.420;2023-07-28T09:14:35;14.00;;;7.33;;
72109;SDS011;59983;52.010;5.420;2023-07-28T09:17:09;8.98;;;7.95;;
72109;SDS011;59983;52.010;5.420;2023-07-28T09:19:50;8.90;;;8.10;;
72109;SDS011;59983;52.010;5.420;2023-07-28T09:22:18;18.65;;;8.60;;
72109;SDS011;59983;52.010;5.420;2023-07-28T09:24:46;10.82;;;8.57;;
72109;SDS011;59983;52.010;5.420;2023-07-28T09:27:20;8.30;;;7.57;;
72109;SDS011;59983;52.010;5.420;2023-07-28T09:29:52;13.70;;;8.85;;
72109;SDS011;59983;52.010;5.420;2023-07-28T09:32:27;14.90;;;10.25;;
72109;SDS011;59983;52.010;5.420;2023-07-28T09:35:09;9.85;;;8.85;;
72109;SDS011;59983;52.010;5.420;2023-07-28T09:37:38;11.63;;;8.80;;
72109;SDS011;59983;52.010;5.420;2023-07-28T09:40:10;9.43;;;8.53;;
72109;SDS011;59983;52.010;5.420;2023-07-28T09:42:39;12.82;;;9.20;;
72109;SDS011;59983;52.010;5.420;2023-07-28T09:45:07;11.85;;;9.02;;
72109;SDS011;59983;52.010;5.420;2023-07-28T09:47:51;12.63;;;9.48;;
72109;SDS011;59983;52.010;5.420;2023-07-28T09:50:23;19.92;;;9.70;;
72109;SDS011;59983;52.010;5.420;2023-07-28T09:52:53;9.60;;;7.40;;
72109;SDS011;59983;52.010;5.420;2023-07-28T09:55:24;15.75;;;8.43;;
72109;SDS011;59983;52.010;5.420;2023-07-28T09:57:51;12.00;;;8.95;;
72109;SDS011;59983;52.010;5.420;2023-07-28T10:00:21;17.83;;;10.73;;
72109;SDS011;59983;52.010;5.420;2023-07-28T10:02:49;18.75;;;10.00;;
72109;SDS011;59983;52.010;5.420;2023-07-28T10:05:19;15.27;;;10.07;;
72109;SDS011;59983;52.010;5.420;2023-07-28T10:07:48;10.60;;;7.68;;
72109;SDS011;59983;52.010;5.420;2023-07-28T10:10:15;14.27;;;9.80;;
72109;SDS011;59983;52.010;5.420;2023-07-28T10:12:46;11.60;;;8.43;;
72109;SDS011;59983;52.010;5.420;2023-07-28T10:15:15;14.98;;;10.18;;
72109;SDS011;59983;52.010;5.420;2023-07-28T10:23:07;15.88;;;11.02;;
72109;SDS011;59983;52.010;5.420;2023-07-28T10:25:39;17.23;;;11.60;;
72109;SDS011;59983;52.010;5.420;2023-07-28T10:28:07;18.55;;;11.05;;
72109;SDS011;59983;52.010;5.420;2023-07-28T10:30:52;15.93;;;11.77;;
72109;SDS011;59983;52.010;5.420;2023-07-28T10:33:30;14.93;;;10.20;;
72109;SDS011;59983;52.010;5.420;2023-07-28T10:35:59;16.95;;;11.75;;
72109;SDS011;59983;52.010;5.420;2023-07-28T10:38:36;15.43;;;12.65;;
72109;SDS011;59983;52.010;5.420;2023-07-28T10:43:33;16.47;;;11.57;;
72109;SDS011;59983;52.010;5.420;2023-07-28T10:46:00;18.13;;;11.43;;
72109;SDS011;59983;52.010;5.420;2023-07-28T10:48:27;15.20;;;13.00;;
72109;SDS011;59983;52.010;5.420;2023-07-28T10:50:53;17.38;;;13.52;;
72109;SDS011;59983;52.010;5.420;2023-07-28T10:53:20;16.90;;;12.52;;
72109;SDS011;59983;52.010;5.420;2023-07-28T10:55:47;15.10;;;12.50;;
72109;SDS011;59983;52.010;5.420;2023-07-28T10:58:13;20.10;;;11.93;;
72109;SDS011;59983;52.010;5.420;2023-07-28T11:00:40;17.67;;;11.73;;
72109;SDS011;59983;52.010;5.420;2023-07-28T11:03:07;17.00;;;12.10;;
72109;SDS011;59983;52.010;5.420;2023-07-28T11:05:35;16.73;;;11.07;;
72109;SDS011;59983;52.010;5.420;2023-07-28T11:08:01;16.93;;;12.63;;
72109;SDS011;59983;52.010;5.420;2023-07-28T11:10:29;18.98;;;11.63;;
72109;SDS011;59983;52.010;5.420;2023-07-28T11:12:57;15.38;;;11.98;;
72109;SDS011;59983;52.010;5.420;2023-07-28T11:15:36;15.02;;;10.85;;
72109;SDS011;59983;52.010;5.420;2023-07-28T11:18:02;19.85;;;10.50;;
72109;SDS011;59983;52.010;5.420;2023-07-28T11:20:31;14.20;;;10.43;;
72109;SDS011;59983;52.010;5.420;2023-07-28T11:22:58;18.92;;;11.02;;
72109;SDS011;59983;52.010;5.420;2023-07-28T11:25:27;13.65;;;11.70;;
72109;SDS011;59983;52.010;5.420;2023-07-28T11:27:56;16.48;;;11.18;;
72109;SDS011;59983;52.010;5.420;2023-07-28T11:30:22;18.15;;;11.70;;
72109;SDS011;59983;52.010;5.420;2023-07-28T11:32:50;15.50;;;11.33;;
72109;SDS011;59983;52.010;5.420;2023-07-28T11:35:19;13.02;;;9.07;;
72109;SDS011;59983;52.010;5.420;2023-07-28T11:37:49;14.38;;;10.00;;
72109;SDS011;59983;52.010;5.420;2023-07-28T11:40:17;11.23;;;9.05;;
72109;SDS011;59983;52.010;5.420;2023-07-28T11:45:14;11.70;;;9.87;;
72109;SDS011;59983;52.010;5.420;2023-07-28T11:50:34;9.77;;;8.70;;
72109;SDS011;59983;52.010;5.420;2023-07-28T11:53:05;8.82;;;6.70;;
72109;SDS011;59983;52.010;5.420;2023-07-28T11:55:36;7.97;;;6.93;;
72109;SDS011;59983;52.010;5.420;2023-07-28T11:58:03;9.77;;;7.57;;
72109;SDS011;59983;52.010;5.420;2023-07-28T12:00:33;7.75;;;6.95;;
72109;SDS011;59983;52.010;5.420;2023-07-28T12:03:03;9.13;;;7.80;;
72109;SDS011;59983;52.010;5.420;2023-07-28T12:05:37;9.10;;;7.40;;
72109;SDS011;59983;52.010;5.420;2023-07-28T12:08:32;12.82;;;7.55;;
72109;SDS011;59983;52.010;5.420;2023-07-28T12:11:00;11.03;;;7.40;;
72109;SDS011;59983;52.010;5.420;2023-07-28T12:13:30;7.63;;;6.78;;
72109;SDS011;59983;52.010;5.420;2023-07-28T12:15:57;8.98;;;7.03;;
72109;SDS011;59983;52.010;5.420;2023-07-28T12:18:29;8.70;;;7.80;;
72109;SDS011;59983;52.010;5.420;2023-07-28T12:20:59;10.32;;;8.32;;
72109;SDS011;59983;52.010;5.420;2023-07-28T12:23:26;13.37;;;8.03;;
72109;SDS011;59983;52.010;5.420;2023-07-28T12:25:55;9.10;;;8.23;;
72109;SDS011;59983;52.010;5.420;2023-07-28T12:28:24;8.07;;;7.28;;
72109;SDS011;59983;52.010;5.420;2023-07-28T12:30:52;10.05;;;8.60;;
72109;SDS011;59983;52.010;5.420;2023-07-28T12:33:22;12.82;;;10.00;;
72109;SDS011;59983;52.010;5.420;2023-07-28T12:35:49;13.10;;;9.63;;
72109;SDS011;59983;52.010;5.420;2023-07-28T12:38:18;9.70;;;8.70;;
72109;SDS011;59983;52.010;5.420;2023-07-28T12:40:47;14.82;;;8.95;;
72109;SDS011;59983;52.010;5.420;2023-07-28T12:43:17;12.75;;;9.00;;
72109;SDS011;59983;52.010;5.420;2023-07-28T12:45:47;11.48;;;8.10;;
72109;SDS011;59983;52.010;5.420;2023-07-28T12:48:16;8.87;;;8.10;;
72109;SDS011;59983;52.010;5.420;2023-07-28T12:50:47;8.88;;;8.07;;
72109;SDS011;59983;52.010;5.420;2023-07-28T12:53:16;7.68;;;6.90;;
72109;SDS011;59983;52.010;5.420;2023-07-28T12:55:48;6.97;;;6.43;;
72109;SDS011;59983;52.010;5.420;2023-07-28T12:58:18;7.07;;;6.50;;
72109;SDS011;59983;52.010;5.420;2023-07-28T13:00:47;9.50;;;8.57;;
72109;SDS011;59983;52.010;5.420;2023-07-28T13:03:17;8.38;;;7.68;;
72109;SDS011;59983;52.010;5.420;2023-07-28T13:05:44;9.90;;;8.43;;
72109;SDS011;59983;52.010;5.420;2023-07-28T13:08:10;11.65;;;7.90;;
72109;SDS011;59983;52.010;5.420;2023-07-28T13:10:37;9.05;;;7.85;;
72109;SDS011;59983;52.010;5.420;2023-07-28T13:13:06;9.77;;;8.83;;
72109;SDS011;59983;52.010;5.420;2023-07-28T13:15:39;9.27;;;8.48;;
72109;SDS011;59983;52.010;5.420;2023-07-28T13:18:06;9.27;;;8.38;;
72109;SDS011;59983;52.010;5.420;2023-07-28T13:20:32;11.73;;;10.23;;
72109;SDS011;59983;52.010;5.420;2023-07-28T13:22:59;9.88;;;8.90;;
72109;SDS011;59983;52.010;5.420;2023-07-28T13:25:25;10.03;;;8.47;;
72109;SDS011;59983;52.010;5.420;2023-07-28T13:27:52;9.57;;;7.80;;
72109;SDS011;59983;52.010;5.420;2023-07-28T13:30:19;9.63;;;8.70;;
72109;SDS011;59983;52.010;5.420;2023-07-28T13:32:46;9.10;;;8.20;;
72109;SDS011;59983;52.010;5.420;2023-07-28T13:35:13;9.20;;;8.13;;
72109;SDS011;59983;52.010;5.420;2023-07-28T13:37:41;8.63;;;7.83;;
72109;SDS011;59983;52.010;5.420;2023-07-28T13:40:07;13.25;;;8.60;;
72109;SDS011;59983;52.010;5.420;2023-07-28T13:42:37;10.18;;;8.82;;
72109;SDS011;59983;52.010;5.420;2023-07-28T13:45:04;10.52;;;9.27;;
72109;SDS011;59983;52.010;5.420;2023-07-28T13:47:31;15.40;;;9.15;;
72109;SDS011;59983;52.010;5.420;2023-07-28T13:49:57;17.53;;;9.60;;
72109;SDS011;59983;52.010;5.420;2023-07-28T13:52:24;13.75;;;10.32;;
72109;SDS011;59983;52.010;5.420;2023-07-28T13:54:51;10.65;;;9.07;;
72109;SDS011;59983;52.010;5.420;2023-07-28T13:57:21;12.38;;;10.10;;
72109;SDS011;59983;52.010;5.420;2023-07-28T13:59:47;12.35;;;9.75;;
72109;SDS011;59983;52.010;5.420;2023-07-28T14:02:14;10.83;;;9.67;;
72109;SDS011;59983;52.010;5.420;2023-07-28T14:04:43;13.02;;;10.05;;
72109;SDS011;59983;52.010;5.420;2023-07-28T14:07:09;11.98;;;9.70;;
72109;SDS011;59983;52.010;5.420;2023-07-28T14:09:36;11.98;;;10.45;;
72109;SDS011;59983;52.010;5.420;2023-07-28T14:12:04;12.27;;;10.85;;
72109;SDS011;59983;52.010;5.420;2023-07-28T14:14:31;12.37;;;11.07;;
72109;SDS011;59983;52.010;5.420;2023-07-28T14:16:58;14.50;;;11.82;;
72109;SDS011;59983;52.010;5.420;2023-07-28T14:19:25;13.70;;;10.73;;
72109;SDS011;59983;52.010;5.420;2023-07-28T14:21:52;12.20;;;10.48;;
72109;SDS011;59983;52.010;5.420;2023-07-28T14:24:19;15.27;;;10.68;;
72109;SDS011;59983;52.010;5.420;2023-07-28T14:26:46;11.20;;;10.00;;
72109;SDS011;59983;52.010;5.420;2023-07-28T14:29:12;11.63;;;10.23;;
72109;SDS011;59983;52.010;5.420;2023-07-28T14:31:39;10.77;;;9.68;;
72109;SDS011;59983;52.010;5.420;2023-07-28T14:34:06;15.65;;;9.95;;
72109;SDS011;59983;52.010;5.420;2023-07-28T14:36:33;11.55;;;9.35;;
72109;SDS011;59983;52.010;5.420;2023-07-28T14:39:01;8.23;;;7.40;;
72109;SDS011;59983;52.010;5.420;2023-07-28T14:41:28;9.02;;;6.20;;
72109;SDS011;59983;52.010;5.420;2023-07-28T14:43:55;7.25;;;6.55;;